Time;durP1;ratioP1;P1;durP2;ratioP2;P2;SDS_P1;SDS_P2;PMS_P1;PMS_P2;Temp;Humidity;BMP_temperature;BMP_pressure;BME280_temperature;BME280_humidity;BME280_pressure;Samples;Min_cycle;Max_cycle;Signal;HPM_P1;HPM_P2
2023/01/20 00:01:30;;;;;;;11.10;6.33;;;3.90;90.40;;;4.40;57.57;98061.84;4958479;28;124030;-70
2023/01/20 00:03:57;;;;;;;11.80;7.07;;;3.90;90.40;;;4.40;57.61;98053.66;4964757;28;123824;-70
2023/01/20 00:06:28;;;;;;;12.87;7.03;;;3.90;90.40;;;4.41;57.89;98060.78;4955273;28;119306;-70
2023/01/20 00:08:58;;;;;;;14.13;7.37;;;3.90;90.40;;;4.41;57.65;98063.50;4963397;28;119059;-70
2023/01/20 00:11:25;;;;;;;11.70;6.33;;;3.90;90.40;;;4.42;57.43;98070.59;4964537;28;123984;-70
2023/01/20 00:13:57;;;;;;;10.70;6.37;;;4.00;90.40;;;4.46;57.61;98070.84;4959291;28;123046;-70
2023/01/20 00:16:25;;;;;;;8.43;5.83;;;4.00;90.40;;;4.45;57.66;98074.66;4964703;28;120091;-70
2023/01/20 00:18:53;;;;;;;10.03;6.07;;;4.10;90.50;;;4.46;58.03;98073.59;4967700;28;119736;-70
2023/01/20 00:21:19;;;;;;;11.43;6.27;;;4.00;90.40;;;4.47;57.01;98082.59;4964488;28;123676;-70
2023/01/20 00:23:46;;;;;;;13.17;7.17;;;4.00;90.40;;;4.47;57.72;98080.69;4958782;28;123906;-70
2023/01/20 00:26:17;;;;;;;10.10;6.57;;;4.00;90.30;;;4.48;57.12;98084.22;4950729;28;119298;-70
2023/01/20 00:28:44;;;;;;;12.77;6.67;;;4.00;90.30;;;4.47;57.73;98090.81;4952430;28;118307;-70
2023/01/20 00:31:17;;;;;;;10.60;6.33;;;4.00;90.40;;;4.48;57.24;98089.69;4956217;28;122676;-74
2023/01/20 00:33:45;;;;;;;16.20;6.53;;;4.80;90.70;;;4.42;57.43;98089.75;4958933;28;124234;-70
2023/01/20 00:36:13;;;;;;;14.73;7.10;;;4.10;90.40;;;4.43;57.81;98096.03;4961149;28;119149;-70
2023/01/20 00:38:40;;;;;;;14.27;7.70;;;4.00;90.40;;;4.42;57.82;98097.94;4954426;28;119383;-72
2023/01/20 00:41:08;;;;;;;8.93;6.30;;;4.00;90.40;;;4.43;57.66;98099.59;4982586;28;123618;-70
2023/01/20 00:43:35;;;;;;;12.00;6.77;;;3.90;90.30;;;4.41;57.43;98101.00;4963414;28;123733;-70
2023/01/20 00:46:03;;;;;;;12.73;7.90;;;3.90;90.30;;;4.37;57.15;98110.84;4952893;28;119227;-70
2023/01/20 00:48:29;;;;;;;13.70;7.63;;;3.90;90.40;;;4.33;57.48;98107.09;4953253;28;119054;-70
2023/01/20 00:50:56;;;;;;;16.67;8.00;;;3.80;90.40;;;4.26;57.60;98114.81;4949738;28;123920;-71
2023/01/20 00:53:22;;;;;;;9.83;7.23;;;3.60;90.40;;;4.18;57.89;98108.84;4953233;28;125814;-71
2023/01/20 00:55:49;;;;;;;13.00;7.43;;;3.70;90.50;;;4.15;58.14;98108.63;4943259;28;118491;-71
2023/01/20 00:58:16;;;;;;;12.40;6.77;;;3.60;90.50;;;4.10;57.92;98114.13;4965575;28;118023;-71
2023/01/20 01:00:46;;;;;;;12.53;7.57;;;3.60;90.60;;;4.08;58.32;98113.59;4962789;28;124185;-71
2023/01/20 01:03:13;;;;;;;11.03;6.63;;;3.60;90.90;;;4.07;58.15;98120.97;4968647;28;124306;-71
2023/01/20 01:05:40;;;;;;;13.40;8.37;;;3.60;90.70;;;4.08;58.40;98130.00;4980229;28;120113;-70
2023/01/20 01:08:07;;;;;;;10.17;6.77;;;3.50;90.80;;;4.04;58.22;98132.50;4977350;28;119974;-70
2023/01/20 01:10:34;;;;;;;14.00;7.17;;;3.50;90.80;;;4.04;58.33;98131.69;4964076;28;123017;-71
2023/01/20 01:13:02;;;;;;;13.57;8.20;;;3.50;90.80;;;4.05;58.82;98133.31;4950704;28;123465;-70
2023/01/20 01:15:29;;;;;;;12.30;7.50;;;3.50;90.80;;;4.04;58.68;98134.41;4965013;28;118682;-70
2023/01/20 01:17:59;;;;;;;15.60;8.53;;;3.50;90.80;;;4.04;58.62;98145.34;4966228;28;118018;-70
2023/01/20 01:20:27;;;;;;;14.37;6.70;;;3.50;90.90;;;4.04;58.11;98145.34;4959953;28;123780;-71
2023/01/20 01:22:54;;;;;;;13.17;7.33;;;3.60;90.90;;;4.05;58.80;98146.97;4955269;28;123545;-70
2023/01/20 01:25:21;;;;;;;11.60;7.17;;;3.50;90.90;;;4.07;58.36;98140.13;4957413;28;118925;-71
2023/01/20 01:27:47;;;;;;;13.30;7.50;;;4.70;91.40;;;4.12;58.93;98144.72;4946718;28;119754;-70
2023/01/20 01:30:14;;;;;;;9.33;6.57;;;3.60;90.90;;;4.16;58.29;98153.97;4960921;28;123681;-70
2023/01/20 01:32:40;;;;;;;13.57;6.40;;;3.60;90.90;;;4.18;59.13;98152.59;4956640;28;123949;-71
2023/01/20 01:35:07;;;;;;;13.90;6.60;;;3.70;90.90;;;4.21;58.69;98157.47;4961145;28;119332;-71
2023/01/20 01:37:34;;;;;;;11.43;7.33;;;3.70;90.90;;;4.23;58.34;98153.66;4966568;28;119154;-72
2023/01/20 01:40:00;;;;;;;11.63;8.30;;;3.70;90.90;;;4.25;58.97;98160.47;4965026;28;122977;-70
2023/01/20 01:42:27;;;;;;;13.77;7.53;;;3.90;91.00;;;4.25;58.57;98163.22;4962449;28;123698;-71
2023/01/20 01:45:11;;;;;;;13.17;7.53;;;3.70;90.90;;;4.25;58.29;98168.69;4955817;28;119457;-70
2023/01/20 01:47:53;;;;;;;13.43;8.43;;;3.70;90.90;;;4.21;58.56;98160.22;4959631;28;118065;-71
2023/01/20 01:50:31;;;;;;;15.10;7.40;;;3.70;90.90;;;4.20;58.47;98164.06;4968213;28;123783;-71
2023/01/20 01:52:58;;;;;;;13.40;7.10;;;3.70;90.90;;;4.21;58.45;98170.34;4967364;28;124215;-70
2023/01/20 01:55:29;;;;;;;9.43;6.43;;;3.70;90.90;;;4.25;58.87;98165.13;4964412;28;120029;-71
2023/01/20 01:57:58;;;;;;;11.30;6.60;;;3.80;91.00;;;4.23;58.27;98164.59;4966918;28;119777;-70
2023/01/20 02:00:25;;;;;;;9.90;5.70;;;3.70;90.90;;;4.25;58.21;98168.69;4957326;28;123919;-70
2023/01/20 02:02:52;;;;;;;10.80;6.03;;;3.70;90.80;;;4.21;58.21;98167.59;4966745;28;123831;-71
2023/01/20 02:05:21;;;;;;;10.57;5.53;;;3.70;90.80;;;4.21;58.30;98167.59;4959062;28;119330;-72
2023/01/20 02:07:48;;;;;;;9.53;6.50;;;3.70;90.80;;;4.20;57.98;98166.78;4959389;28;119007;-70
2023/01/20 02:10:15;;;;;;;9.40;5.63;;;3.70;90.80;;;4.23;58.51;98170.88;4966542;28;123851;-70
2023/01/20 02:12:48;;;;;;;11.67;6.27;;;3.80;90.80;;;4.26;58.78;98170.28;4965362;28;122729;-71
2023/01/20 02:15:16;;;;;;;11.17;7.43;;;3.80;90.80;;;4.27;58.51;98176.56;4968014;28;119395;-71
2023/01/20 02:18:19;;;;;;;11.37;6.00;;;3.80;90.90;;;4.30;58.21;98176.84;4966407;28;119118;-71
2023/01/20 02:21:13;;;;;;;13.70;7.50;;;3.80;90.90;;;4.28;58.80;98173.56;4968176;28;123681;-71
2023/01/20 02:24:13;;;;;;;10.00;6.93;;;3.70;90.90;;;4.28;58.49;98179.03;4956768;28;123791;-71
2023/01/20 02:27:00;;;;;;;11.43;7.20;;;3.80;91.00;;;4.28;58.75;98178.22;4969689;28;118329;-71
2023/01/20 02:29:54;;;;;;;11.20;6.50;;;3.80;91.00;;;4.24;58.55;98177.16;4984338;28;119493;-72
2023/01/20 02:32:51;;;;;;;10.30;6.33;;;3.70;91.00;;;4.23;58.58;98184.56;4965510;28;124046;-71
2023/01/20 02:35:38;;;;;;;10.90;6.87;;;3.70;91.00;;;4.19;58.98;98186.22;4964221;28;123746;-71
2023/01/20 02:38:29;;;;;;;13.37;7.70;;;3.70;91.10;;;4.17;59.13;98188.44;4962566;28;119042;-71
2023/01/20 02:41:14;;;;;;;11.77;7.00;;;3.70;91.10;;;4.16;59.57;98184.88;4961648;28;118845;-71
2023/01/20 02:44:10;;;;;;;11.13;7.17;;;3.70;91.20;;;4.18;59.15;98195.53;4966250;28;123856;-71
2023/01/20 02:47:02;;;;;;;11.90;7.30;;;3.70;91.30;;;4.20;59.01;98198.78;4961473;28;125376;-71
2023/01/20 02:49:45;;;;;;;11.07;6.23;;;3.70;91.30;;;4.21;59.66;98193.03;4950727;28;120002;-72
2023/01/20 02:52:19;;;;;;;10.80;6.27;;;3.70;91.30;;;4.23;59.24;98194.66;4965189;28;120010;-71
2023/01/20 02:54:49;;;;;;;10.80;6.17;;;3.80;91.40;;;4.25;58.89;98196.03;4950327;28;123613;-71
2023/01/20 02:57:46;;;;;;;9.33;5.97;;;3.80;91.40;;;4.27;58.98;98202.03;4936798;28;122828;-71
2023/01/20 03:00:39;;;;;;;8.70;5.10;;;3.80;91.40;;;4.26;59.12;98205.03;4949008;28;119362;-71
2023/01/20 03:03:29;;;;;;;6.80;5.17;;;3.80;91.30;;;4.26;59.04;98207.78;4940485;28;118248;-71
2023/01/20 03:06:01;;;;;;;6.50;4.60;;;3.80;91.30;;;4.23;58.76;98209.16;4967965;28;124054;-72
2023/01/20 03:08:31;;;;;;;7.63;5.33;;;3.80;91.20;;;4.25;59.10;98211.63;4972046;28;124155;-76
2023/01/20 03:11:04;;;;;;;7.70;5.23;;;3.80;91.20;;;4.27;59.64;98215.69;4975200;28;118449;-71
2023/01/20 03:13:46;;;;;;;5.60;4.30;;;3.80;91.20;;;4.28;59.15;98217.31;4968861;28;117737;-72
2023/01/20 03:16:19;;;;;;;7.40;5.40;;;3.80;91.20;;;4.28;58.40;98219.25;4953680;28;124078;-72
2023/01/20 03:18:46;;;;;;;8.17;4.87;;;3.80;91.20;;;4.26;58.88;98224.19;4951225;28;123487;-71
2023/01/20 03:21:13;;;;;;;7.20;4.87;;;3.80;91.10;;;4.26;58.29;98218.72;4938766;28;117514;-72
2023/01/20 03:23:48;;;;;;;6.10;5.03;;;3.80;91.10;;;4.26;57.99;98219.50;4955628;28;119186;-72
2023/01/20 03:26:17;;;;;;;10.53;5.20;;;3.80;91.00;;;4.22;58.50;98229.41;4959913;28;124117;-71
2023/01/20 03:28:47;;;;;;;5.40;4.37;;;3.80;90.90;;;4.17;58.52;98219.31;4960050;28;123713;-71
2023/01/20 03:31:31;;;;;;;6.50;5.00;;;3.70;90.90;;;4.19;58.43;98230.78;4962567;28;118338;-71
2023/01/20 03:34:02;;;;;;;9.50;5.77;;;3.70;90.90;;;4.15;58.04;98231.63;4954184;28;119421;-71
2023/01/20 03:36:30;;;;;;;8.00;5.90;;;3.70;90.80;;;4.11;57.80;98234.13;4963253;28;123455;-71
2023/01/20 03:38:58;;;;;;;7.73;5.23;;;3.70;90.70;;;4.07;58.16;98233.06;4965007;28;123010;-71
2023/01/20 03:42:09;;;;;;;6.63;4.70;;;3.60;90.60;;;4.07;57.89;98232.25;4947678;28;119762;-71
2023/01/20 03:45:08;;;;;;;7.87;5.37;;;3.60;90.60;;;3.99;58.40;98236.38;4952765;28;119903;-71
2023/01/20 03:47:57;;;;;;;6.33;4.60;;;3.50;90.60;;;3.90;57.98;98241.66;4957337;28;125367;-71
2023/01/20 03:50:35;;;;;;;10.40;5.97;;;3.50;90.60;;;3.84;58.34;98248.25;4964339;28;123960;-71
2023/01/20 03:53:50;;;;;;;5.63;4.73;;;3.50;90.60;;;3.80;58.26;98244.44;4959897;28;118982;-71
2023/01/20 03:56:28;;;;;;;8.67;5.07;;;3.40;90.50;;;3.73;58.60;98246.66;4963669;28;118712;-71
2023/01/20 03:58:58;;;;;;;10.70;5.43;;;3.40;90.60;;;3.65;59.46;98253.50;4965284;28;123680;-73
2023/01/20 04:01:42;;;;;;;9.27;5.67;;;3.30;90.60;;;3.64;58.97;98259.28;4956990;28;123139;-71
2023/01/20 04:04:16;;;;;;;8.27;5.23;;;3.30;90.70;;;3.62;59.03;98256.00;4953916;28;119142;-71
2023/01/20 04:06:44;;;;;;;6.53;4.60;;;3.30;90.80;;;3.63;58.90;98260.38;4948136;28;118847;-72
2023/01/20 04:09:18;;;;;;;7.17;5.00;;;3.30;90.80;;;3.66;59.18;98266.09;4951847;28;124249;-72
2023/01/20 04:11:44;;;;;;;7.70;5.10;;;3.20;90.90;;;3.67;59.33;98261.44;4952215;28;123975;-72
2023/01/20 04:14:11;;;;;;;7.47;4.43;;;3.30;90.90;;;3.68;58.88;98257.59;4947147;28;119030;-72
2023/01/20 04:16:38;;;;;;;7.50;4.70;;;3.20;90.90;;;3.67;59.08;98266.91;4949397;28;118841;-72
2023/01/20 04:19:04;;;;;;;7.13;5.10;;;3.30;91.00;;;3.68;59.15;98269.38;4963354;28;123850;-71
2023/01/20 04:21:36;;;;;;;7.03;4.50;;;3.20;91.00;;;3.71;59.26;98273.44;4947136;28;123475;-72
2023/01/20 04:24:23;;;;;;;10.50;6.70;;;3.20;91.00;;;3.72;59.02;98269.59;4959487;28;119679;-72
2023/01/20 04:26:50;;;;;;;7.40;5.10;;;3.20;91.00;;;3.72;58.96;98269.59;4966074;28;119571;-72
2023/01/20 04:29:16;;;;;;;7.83;4.70;;;3.30;91.10;;;3.72;59.47;98275.88;4948309;28;123057;-72
2023/01/20 04:31:43;;;;;;;9.50;4.57;;;3.30;91.10;;;3.75;59.16;98269.84;4960562;28;123643;-72
2023/01/20 04:34:14;;;;;;;9.67;4.40;;;3.40;91.20;;;3.78;59.47;98273.94;4937860;28;120147;-72
2023/01/20 04:36:41;;;;;;;7.40;5.33;;;3.30;91.10;;;3.79;58.87;98281.06;4967815;28;119971;-72
2023/01/20 04:39:09;;;;;;;6.63;4.47;;;3.30;91.10;;;3.80;59.14;98281.88;4961854;28;124195;-72
2023/01/20 04:41:36;;;;;;;8.90;4.70;;;3.30;91.10;;;3.78;58.51;98278.59;4972072;28;123099;-73
2023/01/20 04:44:02;;;;;;;7.00;4.77;;;3.40;91.10;;;3.79;58.46;98280.22;4970186;28;118859;-72
2023/01/20 04:46:29;;;;;;;9.37;6.20;;;3.30;91.00;;;3.78;59.00;98287.59;4966458;28;119090;-72
2023/01/20 04:48:55;;;;;;;8.13;5.50;;;3.30;91.00;;;3.74;58.59;98287.34;4955481;28;123889;-71
2023/01/20 04:51:37;;;;;;;6.20;4.30;;;3.30;90.90;;;3.73;59.09;98293.09;4946117;28;97611;-71
2023/01/20 04:54:03;;;;;;;8.03;4.43;;;3.30;90.90;;;3.72;58.28;98299.66;4966345;28;119197;-71
2023/01/20 04:56:30;;;;;;;7.10;4.80;;;3.30;90.90;;;3.72;58.79;98295.00;4967867;28;118517;-72
2023/01/20 04:58:57;;;;;;;5.70;4.40;;;3.30;90.90;;;3.73;58.37;98296.66;4966244;28;123945;-72
2023/01/20 05:01:23;;;;;;;7.50;4.77;;;3.50;90.90;;;3.76;58.34;98308.91;4960984;28;123311;-71
2023/01/20 05:03:51;;;;;;;8.20;5.00;;;3.30;90.80;;;3.77;58.59;98310.56;4948959;28;119242;-72
2023/01/20 05:06:17;;;;;;;6.60;4.60;;;3.30;90.80;;;3.78;58.66;98306.72;4956098;28;119078;-72
2023/01/20 05:08:44;;;;;;;6.90;5.10;;;3.30;90.80;;;3.80;58.59;98315.47;4955867;28;123962;-72
2023/01/20 05:11:11;;;;;;;6.03;4.17;;;3.30;90.80;;;3.83;58.29;98314.91;4977766;28;122662;-71
2023/01/20 05:13:38;;;;;;;7.17;4.87;;;3.40;90.80;;;3.83;58.21;98323.09;4956804;28;119164;-71
2023/01/20 05:16:09;;;;;;;7.97;5.00;;;3.30;90.80;;;3.84;58.14;98327.50;4968226;28;119100;-75
2023/01/20 05:18:36;;;;;;;8.33;5.33;;;3.40;90.70;;;3.84;58.53;98327.50;4963152;28;124254;-74
2023/01/20 05:21:07;;;;;;;9.80;5.20;;;3.40;90.70;;;3.80;57.55;98336.50;4968697;28;123562;-72
2023/01/20 05:23:34;;;;;;;11.10;5.73;;;3.30;90.60;;;3.72;57.76;98338.72;4961306;28;120257;-72
2023/01/20 05:26:01;;;;;;;7.80;5.77;;;3.20;90.60;;;3.69;58.48;98344.75;4960966;28;120357;-72
2023/01/20 05:28:27;;;;;;;8.53;5.30;;;3.20;90.70;;;3.72;58.12;98351.56;4963583;28;124088;-72
2023/01/20 05:30:54;;;;;;;7.63;5.10;;;3.20;90.70;;;3.75;58.00;98351.00;4963173;28;123827;-72
2023/01/20 05:33:20;;;;;;;7.63;4.73;;;3.20;90.70;;;3.78;58.23;98347.72;4964410;28;119789;-72
2023/01/20 05:35:48;;;;;;;7.77;4.40;;;3.30;90.70;;;3.80;58.13;98353.72;4962786;28;119028;-71
2023/01/20 05:38:15;;;;;;;8.87;4.80;;;3.30;90.70;;;3.83;58.15;98355.91;4968098;28;124264;-72
2023/01/20 05:40:41;;;;;;;10.93;7.10;;;3.30;90.60;;;3.84;57.63;98353.97;4967991;28;124179;-72
2023/01/20 05:43:08;;;;;;;17.87;9.27;;;3.40;90.60;;;3.87;57.93;98359.72;4960357;28;119772;-72
2023/01/20 05:45:34;;;;;;;17.90;9.73;;;3.40;90.60;;;3.90;58.07;98370.09;4962109;28;119193;-72
2023/01/20 05:48:02;;;;;;;10.70;6.97;;;3.40;90.50;;;3.91;57.52;98366.25;4956253;28;124021;-73
2023/01/20 05:50:28;;;;;;;8.43;5.70;;;3.40;90.50;;;3.91;57.41;98365.44;4961616;28;123517;-72
2023/01/20 05:52:55;;;;;;;8.03;4.73;;;3.40;90.40;;;3.89;57.28;98364.88;4966345;28;119146;-72
2023/01/20 05:55:21;;;;;;;8.23;4.70;;;3.40;90.40;;;3.87;57.81;98370.66;4956320;28;118722;-72
2023/01/20 05:57:48;;;;;;;7.50;4.50;;;3.40;90.30;;;3.86;57.60;98369.00;4966118;28;123980;-72
2023/01/20 06:00:17;;;;;;;8.33;4.30;;;3.40;90.30;;;3.85;57.53;98381.03;4963545;28;123944;-72
2023/01/20 06:02:44;;;;;;;8.60;5.57;;;3.40;90.30;;;3.82;57.39;98378.88;4974790;28;118672;-72
2023/01/20 06:05:10;;;;;;;6.50;4.47;;;3.40;90.20;;;3.81;57.89;98377.22;4960752;28;119039;-72
2023/01/20 06:07:37;;;;;;;8.43;4.80;;;3.40;90.30;;;3.82;57.77;98376.13;4959201;28;123866;-72
2023/01/20 06:10:04;;;;;;;8.43;5.53;;;3.40;90.40;;;3.83;57.85;98382.41;4960316;28;123672;-72
2023/01/20 06:12:30;;;;;;;7.77;4.87;;;3.40;90.40;;;3.84;57.65;98376.69;4958869;28;119260;-72
2023/01/20 06:14:57;;;;;;;7.67;5.37;;;3.40;90.50;;;3.85;57.93;98383.75;4966751;28;119858;-72
2023/01/20 06:17:25;;;;;;;6.07;4.27;;;3.40;90.40;;;3.85;57.87;98385.69;4962126;28;122948;-71
2023/01/20 06:19:51;;;;;;;6.23;4.60;;;3.30;90.40;;;3.85;57.70;98391.97;4936942;28;123135;-71
2023/01/20 06:22:19;;;;;;;8.27;4.50;;;3.30;90.40;;;3.87;57.58;98391.66;4961855;28;118061;-72
2023/01/20 06:24:46;;;;;;;8.23;5.13;;;3.40;90.40;;;3.86;57.10;98401.78;4953589;28;118871;-72
2023/01/20 06:27:13;;;;;;;8.43;4.80;;;3.40;90.40;;;3.86;57.35;98399.06;4948135;28;124059;-71
2023/01/20 06:29:40;;;;;;;5.20;4.37;;;3.40;90.30;;;3.85;57.29;98405.63;4962094;28;123909;-72
2023/01/20 06:32:06;;;;;;;5.93;4.13;;;3.40;90.20;;;3.85;57.00;98405.63;4947564;28;119152;-72
2023/01/20 06:34:33;;;;;;;7.13;4.40;;;3.40;90.20;;;3.84;57.14;98408.63;4956515;28;118738;-72
2023/01/20 06:37:01;;;;;;;8.90;5.20;;;3.40;90.20;;;3.82;57.40;98408.09;4959243;28;124360;-71
2023/01/20 06:39:27;;;;;;;7.43;4.70;;;3.40;90.10;;;3.80;56.92;98411.09;4955475;28;123787;-71
2023/01/20 06:41:57;;;;;;;8.50;5.40;;;3.40;90.10;;;3.80;57.54;98413.84;4960312;28;119261;-71
2023/01/20 06:44:27;;;;;;;9.40;5.43;;;4.60;90.60;;;3.77;57.24;98422.59;4953705;28;117898;-71
2023/01/20 06:46:53;;;;;;;10.43;6.00;;;3.30;90.10;;;3.72;57.20;98417.13;4954811;28;124217;-71
2023/01/20 06:49:20;;;;;;;9.50;5.33;;;3.30;90.10;;;3.67;56.85;98426.16;4948653;28;123812;-72
2023/01/20 06:51:48;;;;;;;9.80;5.80;;;3.20;90.00;;;3.62;57.97;98422.63;4965265;28;118431;-71
2023/01/20 06:54:15;;;;;;;6.07;4.90;;;3.20;90.00;;;3.58;57.83;98433.28;4967244;28;119450;-72
2023/01/20 06:56:41;;;;;;;9.63;5.50;;;3.20;90.00;;;3.58;57.65;98443.41;4965446;28;123913;-71
2023/01/20 06:59:10;;;;;;;7.50;4.83;;;3.20;90.10;;;3.57;57.50;98436.28;4952450;28;122807;-71
2023/01/20 07:01:36;;;;;;;7.10;5.07;;;3.20;90.10;;;3.58;57.76;98451.59;4954927;28;119972;-74
2023/01/20 07:04:03;;;;;;;7.70;4.70;;;3.30;90.20;;;3.60;57.65;98454.84;4950366;28;119709;-71
2023/01/20 07:06:33;;;;;;;8.00;5.60;;;3.20;90.20;;;3.60;57.85;98461.16;4949474;28;124213;-71
2023/01/20 07:09:01;;;;;;;8.33;5.50;;;3.20;90.20;;;3.61;57.51;98460.06;4959421;28;123780;-71
2023/01/20 07:11:30;;;;;;;8.33;5.37;;;3.20;90.20;;;3.65;57.98;98461.13;4955358;28;119095;-71
2023/01/20 07:13:57;;;;;;;7.53;5.50;;;3.20;90.30;;;3.67;57.55;98469.88;4952425;28;119027;-71
2023/01/20 07:16:24;;;;;;;11.77;5.37;;;3.20;90.30;;;3.68;57.76;98465.22;4956512;28;124066;-72
2023/01/20 07:18:51;;;;;;;9.20;6.60;;;3.40;90.40;;;3.68;57.86;98476.16;4956605;28;122703;-71
2023/01/20 07:21:19;;;;;;;12.97;5.90;;;3.20;90.30;;;3.68;58.14;98474.25;4937070;28;118911;-73
2023/01/20 07:23:47;;;;;;;7.17;4.57;;;3.20;90.40;;;3.71;57.41;98481.91;4957112;28;119302;-71
2023/01/20 07:26:25;;;;;;;8.20;5.13;;;3.20;90.40;;;3.75;57.94;98482.16;4957064;28;123897;-71
2023/01/20 07:28:53;;;;;;;8.13;4.63;;;3.20;90.40;;;3.72;57.30;98488.97;4981857;28;123820;-72
2023/01/20 07:31:24;;;;;;;9.00;5.00;;;3.20;90.30;;;3.72;57.05;98494.44;4963683;28;118541;-74
2023/01/20 07:33:53;;;;;;;8.50;5.37;;;3.40;90.40;;;3.70;57.31;98501.28;4980662;28;119370;-72
2023/01/20 07:36:19;;;;;;;8.13;5.27;;;3.20;90.20;;;3.71;57.51;98502.94;4949489;28;124044;-72
2023/01/20 07:38:48;;;;;;;9.80;5.13;;;3.20;90.20;;;3.71;57.32;98505.66;4963910;28;121931;-72
2023/01/20 07:41:16;;;;;;;11.10;4.80;;;3.20;90.20;;;3.71;57.18;98513.88;4950115;28;119278;-74
2023/01/20 07:43:48;;;;;;;6.93;5.20;;;3.20;90.10;;;3.72;57.14;98512.75;4965678;28;118307;-74
2023/01/20 07:46:15;;;;;;;8.10;4.83;;;3.20;90.10;;;3.68;56.77;98520.69;4960233;28;123919;-73
2023/01/20 07:48:42;;;;;;;8.30;4.87;;;3.20;90.10;;;3.68;57.12;98522.59;4958469;28;124043;-73
2023/01/20 07:51:12;;;;;;;7.93;4.80;;;3.20;90.10;;;3.68;57.58;98525.31;4957522;28;120429;-74
2023/01/20 07:53:45;;;;;;;6.87;5.10;;;3.20;90.00;;;3.68;57.04;98525.31;4960553;28;118689;-73
2023/01/20 07:56:15;;;;;;;12.97;5.70;;;3.20;90.00;;;3.69;56.83;98532.44;4972736;28;123174;-73
2023/01/20 07:58:46;;;;;;;13.00;5.03;;;3.20;90.00;;;3.71;57.27;98536.53;4945685;28;123657;-74
2023/01/20 08:01:22;;;;;;;7.17;4.77;;;3.30;90.10;;;3.78;59.31;98533.50;4948113;28;119346;-72
2023/01/20 08:03:49;;;;;;;7.13;4.87;;;4.30;91.10;;;4.07;61.25;98539.22;4963447;28;118819;-72
2023/01/20 08:06:19;;;;;;;6.73;5.20;;;3.40;92.80;;;4.43;62.18;98542.69;4951033;28;124176;-72
2023/01/20 08:08:47;;;;;;;9.77;5.63;;;3.70;93.40;;;4.68;62.16;98546.44;4955197;28;123579;-73
2023/01/20 08:11:15;;;;;;;8.37;4.90;;;4.00;93.70;;;4.85;61.81;98548.81;4964461;28;119131;-75
2023/01/20 08:13:43;;;;;;;9.30;6.20;;;4.00;93.50;;;4.90;60.89;98542.50;4939762;28;118313;-77
2023/01/20 08:16:28;;;;;;;8.93;5.57;;;4.10;93.20;;;4.85;61.01;98541.41;4965922;28;123996;-88
2023/01/20 08:18:55;;;;;;;10.27;5.40;;;4.10;92.80;;;4.79;59.94;98552.69;4950793;28;124230;-73
2023/01/20 08:21:29;;;;;;;7.70;5.00;;;4.10;92.40;;;4.74;58.45;98558.97;4949651;28;119538;-75
2023/01/20 08:23:58;;;;;;;9.27;5.67;;;4.10;92.00;;;4.67;58.04;98554.91;4949218;28;119534;-75
2023/01/20 08:26:27;;;;;;;7.23;4.97;;;4.10;91.60;;;4.63;57.85;98562.88;4951922;28;123760;-71
2023/01/20 08:28:55;;;;;;;7.17;4.53;;;4.10;91.40;;;4.61;58.02;98567.78;4952394;28;122822;-71
2023/01/20 08:31:23;;;;;;;8.90;5.33;;;4.00;91.10;;;4.59;57.47;98564.50;4953146;28;119738;-71
2023/01/20 08:33:54;;;;;;;7.63;5.50;;;4.00;91.00;;;4.59;57.88;98562.63;4958675;28;118992;-71
2023/01/20 08:36:26;;;;;;;6.47;5.20;;;4.00;90.90;;;4.56;57.48;98567.81;4949268;28;124001;-71
2023/01/20 08:38:55;;;;;;;7.80;5.10;;;4.00;90.70;;;4.53;57.06;98565.63;4948979;28;123307;-72
2023/01/20 08:41:27;;;;;;;8.53;5.40;;;4.00;90.60;;;4.53;56.76;98574.66;4963708;28;120126;-72
2023/01/20 08:43:56;;;;;;;9.77;6.40;;;4.00;90.50;;;4.54;56.97;98568.09;4952037;28;119867;-72
2023/01/20 08:46:24;;;;;;;10.87;5.30;;;4.00;90.50;;;4.56;56.63;98576.81;4958839;28;123988;-71
2023/01/20 08:48:51;;;;;;;8.93;5.50;;;4.00;90.40;;;4.59;56.90;98578.19;4952992;28;123942;-72
2023/01/20 08:51:38;;;;;;;12.90;6.13;;;4.00;90.40;;;4.65;57.00;98590.78;4926109;28;119172;-72
2023/01/20 08:54:05;;;;;;;9.30;5.10;;;4.10;90.40;;;4.61;56.75;98593.22;4962617;28;120100;-73
2023/01/20 08:56:32;;;;;;;9.13;5.80;;;4.10;90.30;;;4.62;56.27;98599.50;4945118;28;122818;-73
2023/01/20 08:58:59;;;;;;;8.13;5.13;;;4.10;90.20;;;4.63;55.87;98595.69;4948257;28;122919;-72
2023/01/20 09:01:30;;;;;;;11.20;5.87;;;4.10;90.20;;;4.61;55.61;98600.63;4965822;28;118274;-72
2023/01/20 09:03:57;;;;;;;7.00;5.10;;;4.10;90.10;;;4.59;56.51;98600.06;4949971;28;118279;-71
2023/01/20 09:06:24;;;;;;;12.20;6.47;;;4.10;90.00;;;4.58;56.15;98604.72;4950949;28;124175;-72
2023/01/20 09:08:51;;;;;;;15.03;6.77;;;4.10;90.00;;;4.59;55.89;98608.28;4944694;28;124243;-72
2023/01/20 09:11:21;;;;;;;10.13;5.40;;;4.10;89.80;;;4.57;56.30;98607.75;4948681;28;119270;-73
2023/01/20 09:13:48;;;;;;;8.00;5.07;;;4.10;89.90;;;4.54;56.02;98611.88;4963681;28;119002;-71
2023/01/20 09:16:16;;;;;;;9.50;4.73;;;4.10;89.80;;;4.53;56.34;98607.47;4959486;28;123761;-71
2023/01/20 09:18:43;;;;;;;9.40;5.30;;;4.50;90.00;;;4.52;56.22;98613.25;4960264;28;122895;-72
2023/01/20 09:21:10;;;;;;;7.30;4.90;;;4.00;89.60;;;4.50;56.04;98618.16;4961640;28;118899;-73
2023/01/20 09:23:39;;;;;;;7.60;5.90;;;4.10;89.60;;;4.50;55.65;98618.97;4948462;28;118932;-72
2023/01/20 09:26:07;;;;;;;9.03;6.30;;;4.10;90.10;;;4.51;56.59;98626.06;4948858;28;123950;-72
2023/01/20 09:28:34;;;;;;;9.00;5.87;;;4.00;89.60;;;4.52;55.77;98627.72;4958280;28;124018;-71
2023/01/20 09:31:12;;;;;;;9.90;6.27;;;4.00;89.60;;;4.55;55.82;98624.44;4948386;28;119347;-72
2023/01/20 09:33:39;;;;;;;10.70;5.93;;;4.00;89.70;;;4.53;56.15;98629.38;4959409;28;119940;-74
2023/01/20 09:36:08;;;;;;;10.70;5.57;;;4.00;89.80;;;4.54;56.23;98641.97;4960897;28;123930;-74
2023/01/20 09:44:46;;;;;;;9.70;4.73;;;4.00;89.80;;;4.64;56.00;98633.72;4960432;28;119394;-72
2023/01/20 09:47:27;;;;;;;7.83;5.10;;;4.10;89.70;;;4.64;55.33;98646.56;4948291;28;124447;-71
2023/01/20 09:53:34;;;;;;;8.80;5.80;;;4.10;89.50;;;4.68;55.92;98646.88;4963869;28;119933;-73
2023/01/20 09:56:16;;;;;;;8.00;5.30;;;4.10;89.50;;;4.69;56.10;98643.84;4945111;28;119009;-71
2023/01/20 09:59:25;;;;;;;7.43;4.83;;;4.20;89.40;;;4.72;55.41;98648.75;4900131;28;123054;-73
2023/01/20 10:02:01;;;;;;;9.90;5.23;;;4.20;89.30;;;4.75;55.67;98652.84;4958177;28;123600;-72
2023/01/20 10:04:44;;;;;;;7.87;5.80;;;4.20;89.20;;;4.75;55.24;98656.41;4957901;28;119205;-72
2023/01/20 10:07:46;;;;;;;8.33;5.40;;;4.30;89.10;;;4.75;55.87;98652.84;4955503;28;118823;-72
2023/01/20 10:10:24;;;;;;;10.73;7.10;;;4.20;88.80;;;4.71;55.43;98658.06;4947847;28;123754;-72
2023/01/20 10:13:20;;;;;;;16.20;7.40;;;4.20;88.80;;;4.70;55.64;98650.97;4964704;28;124310;-72
2023/01/20 10:15:53;;;;;;;11.03;6.00;;;4.20;89.10;;;4.72;55.74;98653.41;4957332;28;118162;-71
2023/01/20 10:18:30;;;;;;;8.00;5.57;;;4.20;89.00;;;4.72;55.24;98654.22;4968211;28;119008;-73
2023/01/20 10:21:15;;;;;;;8.90;5.70;;;4.20;88.90;;;4.76;55.27;98649.03;4960539;28;124132;-72
2023/01/20 10:24:21;;;;;;;7.57;5.60;;;4.20;88.80;;;4.80;55.89;98655.56;4959148;28;123629;-71
2023/01/20 10:26:52;;;;;;;11.93;5.60;;;4.30;89.00;;;4.85;55.93;98653.63;4965600;28;120573;-72
2023/01/20 10:29:30;;;;;;;8.00;5.10;;;4.30;89.50;;;4.92;55.45;98658.00;4968442;28;117783;-71
2023/01/20 10:32:04;;;;;;;8.07;5.20;;;4.50;89.40;;;4.93;55.21;98656.91;4950041;28;124097;-72
2023/01/20 10:34:44;;;;;;;8.70;4.60;;;4.40;89.00;;;4.96;55.34;98659.09;4949916;28;123772;-73
2023/01/20 10:37:14;;;;;;;7.90;4.93;;;4.50;88.80;;;4.97;55.08;98663.44;4956792;28;119359;-72
2023/01/20 10:40:02;;;;;;;7.60;4.73;;;4.60;88.70;;;5.01;55.16;98661.81;4967072;28;119039;-74
2023/01/20 10:42:29;;;;;;;7.53;4.17;;;4.90;88.70;;;5.05;55.11;98660.13;4962317;28;124318;-72
2023/01/20 10:44:57;;;;;;;7.63;4.00;;;4.60;88.40;;;5.07;54.69;98650.53;4977124;28;125329;-72
2023/01/20 10:47:41;;;;;;;7.23;4.53;;;4.60;88.10;;;5.14;54.47;98665.88;4942894;28;118777;-72
2023/01/20 10:50:37;;;;;;;6.40;5.03;;;4.70;88.10;;;5.17;54.68;98649.69;4972099;28;118943;-71
2023/01/20 10:53:36;;;;;;;5.53;4.13;;;4.70;87.90;;;5.23;54.77;98656.78;4955744;28;124055;-72